sensor_id;sensor_type;location;lat;lon;timestamp;P1;durP1;ratioP1;P2;durP2;ratioP2
49610;SDS011;35515;48.766;9.176;2023-05-14T00:00:22;10.30;;;8.63;;
49610;SDS011;35515;48.766;9.176;2023-05-14T00:02:50;10.77;;;9.10;;
49610;SDS011;35515;48.766;9.176;2023-05-14T00:05:17;12.27;;;9.70;;
49610;SDS011;35515;48.766;9.176;2023-05-14T00:07:43;11.15;;;8.68;;
49610;SDS011;35515;48.766;9.176;2023-05-14T00:10:10;13.43;;;8.55;;
49610;SDS011;35515;48.766;9.176;2023-05-14T00:12:36;13.27;;;8.90;;
49610;SDS011;35515;48.766;9.176;2023-05-14T00:15:03;10.52;;;8.65;;
49610;SDS011;35515;48.766;9.176;2023-05-14T00:17:30;12.07;;;9.40;;
49610;SDS011;35515;48.766;9.176;2023-05-14T00:19:58;14.45;;;9.43;;
49610;SDS011;35515;48.766;9.176;2023-05-14T00:22:25;10.52;;;9.43;;
49610;SDS011;35515;48.766;9.176;2023-05-14T00:24:51;11.07;;;9.38;;
49610;SDS011;35515;48.766;9.176;2023-05-14T00:27:18;13.45;;;8.98;;
49610;SDS011;35515;48.766;9.176;2023-05-14T00:29:44;13.25;;;9.80;;
49610;SDS011;35515;48.766;9.176;2023-05-14T00:32:11;12.45;;;9.85;;
49610;SDS011;35515;48.766;9.176;2023-05-14T00:34:37;10.77;;;8.88;;
49610;SDS011;35515;48.766;9.176;2023-05-14T00:37:05;12.52;;;9.80;;
49610;SDS011;35515;48.766;9.176;2023-05-14T00:39:32;10.25;;;8.75;;
49610;SDS011;35515;48.766;9.176;2023-05-14T00:41:59;11.13;;;9.25;;
49610;SDS011;35515;48.766;9.176;2023-05-14T00:44:25;11.23;;;9.43;;
49610;SDS011;35515;48.766;9.176;2023-05-14T00:46:52;9.93;;;8.88;;
49610;SDS011;35515;48.766;9.176;2023-05-14T00:49:19;9.80;;;7.85;;
49610;SDS011;35515;48.766;9.176;2023-05-14T00:51:46;11.10;;;8.10;;
49610;SDS011;35515;48.766;9.176;2023-05-14T00:54:14;9.63;;;8.43;;
49610;SDS011;35515;48.766;9.176;2023-05-14T00:56:42;9.82;;;8.02;;
49610;SDS011;35515;48.766;9.176;2023-05-14T00:59:10;11.95;;;8.40;;
49610;SDS011;35515;48.766;9.176;2023-05-14T01:01:36;10.10;;;9.02;;
49610;SDS011;35515;48.766;9.176;2023-05-14T01:04:03;11.52;;;9.18;;
49610;SDS011;35515;48.766;9.176;2023-05-14T01:06:33;13.70;;;10.00;;
49610;SDS011;35515;48.766;9.176;2023-05-14T01:09:07;10.95;;;8.73;;
49610;SDS011;35515;48.766;9.176;2023-05-14T01:11:41;11.68;;;9.77;;
49610;SDS011;35515;48.766;9.176;2023-05-14T01:14:21;11.85;;;9.73;;
49610;SDS011;35515;48.766;9.176;2023-05-14T01:16:55;11.45;;;9.52;;
49610;SDS011;35515;48.766;9.176;2023-05-14T01:19:26;10.50;;;9.43;;
49610;SDS011;35515;48.766;9.176;2023-05-14T01:24:22;14.20;;;9.88;;
49610;SDS011;35515;48.766;9.176;2023-05-14T01:26:49;13.15;;;10.05;;
49610;SDS011;35515;48.766;9.176;2023-05-14T01:29:18;11.25;;;10.05;;
49610;SDS011;35515;48.766;9.176;2023-05-14T01:31:47;13.00;;;10.20;;
49610;SDS011;35515;48.766;9.176;2023-05-14T01:34:16;12.75;;;10.00;;
49610;SDS011;35515;48.766;9.176;2023-05-14T01:36:46;14.30;;;10.98;;
49610;SDS011;35515;48.766;9.176;2023-05-14T01:39:15;11.98;;;10.38;;
49610;SDS011;35515;48.766;9.176;2023-05-14T01:41:42;11.77;;;10.05;;
49610;SDS011;35515;48.766;9.176;2023-05-14T01:44:10;12.35;;;9.93;;
49610;SDS011;35515;48.766;9.176;2023-05-14T01:46:37;13.85;;;10.82;;
49610;SDS011;35515;48.766;9.176;2023-05-14T01:49:03;12.23;;;10.13;;
49610;SDS011;35515;48.766;9.176;2023-05-14T01:51:30;11.35;;;9.25;;
49610;SDS011;35515;48.766;9.176;2023-05-14T01:53:56;12.20;;;10.80;;
49610;SDS011;35515;48.766;9.176;2023-05-14T01:56:24;12.02;;;10.10;;
49610;SDS011;35515;48.766;9.176;2023-05-14T01:58:51;13.35;;;11.13;;
49610;SDS011;35515;48.766;9.176;2023-05-14T02:01:17;15.43;;;10.50;;
49610;SDS011;35515;48.766;9.176;2023-05-14T02:03:44;11.82;;;9.55;;
49610;SDS011;35515;48.766;9.176;2023-05-14T02:06:10;11.50;;;9.70;;
49610;SDS011;35515;48.766;9.176;2023-05-14T02:08:37;13.20;;;10.63;;
49610;SDS011;35515;48.766;9.176;2023-05-14T02:11:04;12.50;;;10.82;;
49610;SDS011;35515;48.766;9.176;2023-05-14T02:13:32;10.90;;;9.77;;
49610;SDS011;35515;48.766;9.176;2023-05-14T02:15:58;12.73;;;10.27;;
49610;SDS011;35515;48.766;9.176;2023-05-14T02:18:24;12.88;;;10.35;;
49610;SDS011;35515;48.766;9.176;2023-05-14T02:20:51;12.45;;;10.73;;
49610;SDS011;35515;48.766;9.176;2023-05-14T02:23:18;11.63;;;9.57;;
49610;SDS011;35515;48.766;9.176;2023-05-14T02:25:44;11.77;;;10.57;;
49610;SDS011;35515;48.766;9.176;2023-05-14T02:28:11;12.63;;;10.77;;
49610;SDS011;35515;48.766;9.176;2023-05-14T02:30:38;12.52;;;10.35;;
49610;SDS011;35515;48.766;9.176;2023-05-14T02:33:05;12.13;;;10.43;;
49610;SDS011;35515;48.766;9.176;2023-05-14T02:35:31;14.98;;;10.57;;
49610;SDS011;35515;48.766;9.176;2023-05-14T02:37:58;12.15;;;10.48;;
49610;SDS011;35515;48.766;9.176;2023-05-14T02:40:24;12.50;;;10.77;;
49610;SDS011;35515;48.766;9.176;2023-05-14T02:42:51;12.57;;;10.73;;
49610;SDS011;35515;48.766;9.176;2023-05-14T02:45:18;12.85;;;10.38;;
49610;SDS011;35515;48.766;9.176;2023-05-14T02:47:46;11.57;;;10.38;;
49610;SDS011;35515;48.766;9.176;2023-05-14T02:50:13;11.63;;;10.27;;
49610;SDS011;35515;48.766;9.176;2023-05-14T02:52:39;11.68;;;10.20;;
49610;SDS011;35515;48.766;9.176;2023-05-14T02:55:06;13.45;;;10.50;;
49610;SDS011;35515;48.766;9.176;2023-05-14T02:57:33;13.90;;;10.88;;
49610;SDS011;35515;48.766;9.176;2023-05-14T03:00:00;11.70;;;9.98;;
49610;SDS011;35515;48.766;9.176;2023-05-14T03:02:26;14.32;;;10.90;;
49610;SDS011;35515;48.766;9.176;2023-05-14T03:04:54;11.77;;;10.02;;
49610;SDS011;35515;48.766;9.176;2023-05-14T03:07:21;10.38;;;8.55;;
49610;SDS011;35515;48.766;9.176;2023-05-14T03:09:47;9.57;;;8.57;;
49610;SDS011;35515;48.766;9.176;2023-05-14T03:12:14;10.32;;;9.15;;
49610;SDS011;35515;48.766;9.176;2023-05-14T03:14:40;11.25;;;9.20;;
49610;SDS011;35515;48.766;9.176;2023-05-14T03:17:07;10.93;;;8.60;;
49610;SDS011;35515;48.766;9.176;2023-05-14T03:19:33;10.30;;;9.05;;
49610;SDS011;35515;48.766;9.176;2023-05-14T03:22:01;11.48;;;8.70;;
49610;SDS011;35515;48.766;9.176;2023-05-14T03:24:28;11.15;;;8.60;;
49610;SDS011;35515;48.766;9.176;2023-05-14T03:26:55;10.77;;;8.73;;
49610;SDS011;35515;48.766;9.176;2023-05-14T03:29:22;10.85;;;9.00;;
49610;SDS011;35515;48.766;9.176;2023-05-14T03:31:48;10.15;;;8.70;;
49610;SDS011;35515;48.766;9.176;2023-05-14T03:34:15;10.90;;;8.70;;
49610;SDS011;35515;48.766;9.176;2023-05-14T03:36:41;9.50;;;7.80;;
49610;SDS011;35515;48.766;9.176;2023-05-14T03:39:09;12.43;;;9.60;;
49610;SDS011;35515;48.766;9.176;2023-05-14T03:41:39;10.25;;;8.27;;
49610;SDS011;35515;48.766;9.176;2023-05-14T03:44:06;10.55;;;8.63;;
49610;SDS011;35515;48.766;9.176;2023-05-14T03:46:32;10.23;;;9.02;;
49610;SDS011;35515;48.766;9.176;2023-05-14T03:48:59;13.07;;;9.18;;
49610;SDS011;35515;48.766;9.176;2023-05-14T03:51:25;11.30;;;9.13;;
49610;SDS011;35515;48.766;9.176;2023-05-14T03:53:52;12.07;;;9.27;;
49610;SDS011;35515;48.766;9.176;2023-05-14T03:56:19;9.90;;;8.63;;
49610;SDS011;35515;48.766;9.176;2023-05-14T03:58:46;12.13;;;9.63;;
49610;SDS011;35515;48.766;9.176;2023-05-14T04:01:13;12.02;;;10.05;;
49610;SDS011;35515;48.766;9.176;2023-05-14T04:03:39;11.77;;;9.05;;
49610;SDS011;35515;48.766;9.176;2023-05-14T04:06:06;13.13;;;8.68;;
49610;SDS011;35515;48.766;9.176;2023-05-14T04:08:32;12.48;;;9.73;;
49610;SDS011;35515;48.766;9.176;2023-05-14T04:10:59;12.05;;;9.63;;
49610;SDS011;35515;48.766;9.176;2023-05-14T04:13:27;11.07;;;9.05;;
49610;SDS011;35515;48.766;9.176;2023-05-14T04:15:53;11.93;;;10.43;;
49610;SDS011;35515;48.766;9.176;2023-05-14T04:18:20;10.70;;;9.60;;
49610;SDS011;35515;48.766;9.176;2023-05-14T04:20:46;11.98;;;9.55;;
49610;SDS011;35515;48.766;9.176;2023-05-14T04:23:13;12.80;;;10.18;;
49610;SDS011;35515;48.766;9.176;2023-05-14T04:25:39;13.07;;;10.75;;
49610;SDS011;35515;48.766;9.176;2023-05-14T04:28:06;11.18;;;9.32;;
49610;SDS011;35515;48.766;9.176;2023-05-14T04:30:33;12.35;;;9.68;;
49610;SDS011;35515;48.766;9.176;2023-05-14T04:33:00;11.20;;;8.88;;
49610;SDS011;35515;48.766;9.176;2023-05-14T04:35:27;11.65;;;9.10;;
49610;SDS011;35515;48.766;9.176;2023-05-14T04:37:54;9.07;;;8.18;;
49610;SDS011;35515;48.766;9.176;2023-05-14T04:40:21;9.65;;;8.65;;
49610;SDS011;35515;48.766;9.176;2023-05-14T04:42:47;13.07;;;9.40;;
49610;SDS011;35515;48.766;9.176;2023-05-14T04:45:14;13.70;;;9.38;;
49610;SDS011;35515;48.766;9.176;2023-05-14T04:47:42;12.57;;;9.52;;
49610;SDS011;35515;48.766;9.176;2023-05-14T04:50:09;12.35;;;9.65;;
49610;SDS011;35515;48.766;9.176;2023-05-14T04:52:36;10.95;;;9.27;;
49610;SDS011;35515;48.766;9.176;2023-05-14T04:55:03;13.05;;;9.38;;
49610;SDS011;35515;48.766;9.176;2023-05-14T04:57:30;10.90;;;9.68;;
49610;SDS011;35515;48.766;9.176;2023-05-14T04:59:57;10.02;;;8.60;;
49610;SDS011;35515;48.766;9.176;2023-05-14T05:02:23;12.40;;;8.65;;
49610;SDS011;35515;48.766;9.176;2023-05-14T05:04:51;10.85;;;8.63;;
49610;SDS011;35515;48.766;9.176;2023-05-14T05:07:18;12.57;;;9.18;;
49610;SDS011;35515;48.766;9.176;2023-05-14T05:09:44;12.13;;;9.98;;
49610;SDS011;35515;48.766;9.176;2023-05-14T05:12:11;13.40;;;8.73;;
49610;SDS011;35515;48.766;9.176;2023-05-14T05:14:37;13.65;;;9.73;;
49610;SDS011;35515;48.766;9.176;2023-05-14T05:17:04;11.35;;;8.63;;
49610;SDS011;35515;48.766;9.176;2023-05-14T05:19:30;11.27;;;8.63;;
49610;SDS011;35515;48.766;9.176;2023-05-14T05:21:58;11.50;;;8.98;;
49610;SDS011;35515;48.766;9.176;2023-05-14T05:24:25;12.18;;;8.18;;
49610;SDS011;35515;48.766;9.176;2023-05-14T05:26:51;12.23;;;8.82;;
49610;SDS011;35515;48.766;9.176;2023-05-14T05:29:19;12.10;;;9.13;;
49610;SDS011;35515;48.766;9.176;2023-05-14T05:31:47;11.13;;;9.05;;
49610;SDS011;35515;48.766;9.176;2023-05-14T05:34:14;10.38;;;8.15;;
49610;SDS011;35515;48.766;9.176;2023-05-14T05:36:40;11.52;;;8.98;;
49610;SDS011;35515;48.766;9.176;2023-05-14T05:39:08;10.73;;;8.93;;
49610;SDS011;35515;48.766;9.176;2023-05-14T05:41:35;11.13;;;9.50;;
49610;SDS011;35515;48.766;9.176;2023-05-14T05:44:01;12.07;;;8.85;;
49610;SDS011;35515;48.766;9.176;2023-05-14T05:46:28;11.45;;;8.88;;
49610;SDS011;35515;48.766;9.176;2023-05-14T05:48:54;11.50;;;9.40;;
49610;SDS011;35515;48.766;9.176;2023-05-14T05:51:21;13.57;;;9.18;;
49610;SDS011;35515;48.766;9.176;2023-05-14T05:53:48;11.45;;;9.68;;
49610;SDS011;35515;48.766;9.176;2023-05-14T05:56:15;11.10;;;8.85;;
49610;SDS011;35515;48.766;9.176;2023-05-14T05:58:42;9.70;;;8.57;;
49610;SDS011;35515;48.766;9.176;2023-05-14T06:01:09;9.95;;;8.77;;
49610;SDS011;35515;48.766;9.176;2023-05-14T06:03:35;12.32;;;9.55;;
49610;SDS011;35515;48.766;9.176;2023-05-14T06:06:02;14.75;;;11.18;;
49610;SDS011;35515;48.766;9.176;2023-05-14T06:08:28;10.50;;;8.85;;
49610;SDS011;35515;48.766;9.176;2023-05-14T06:10:55;10.38;;;8.73;;
49610;SDS011;35515;48.766;9.176;2023-05-14T06:13:23;11.35;;;9.43;;
49610;SDS011;35515;48.766;9.176;2023-05-14T06:15:50;10.82;;;8.80;;
49610;SDS011;35515;48.766;9.176;2023-05-14T06:18:16;11.73;;;8.68;;
49610;SDS011;35515;48.766;9.176;2023-05-14T06:20:43;14.18;;;9.77;;
49610;SDS011;35515;48.766;9.176;2023-05-14T06:23:10;11.98;;;9.45;;
49610;SDS011;35515;48.766;9.176;2023-05-14T06:25:36;12.25;;;9.57;;
49610;SDS011;35515;48.766;9.176;2023-05-14T06:28:03;14.70;;;11.52;;
49610;SDS011;35515;48.766;9.176;2023-05-14T06:30:31;11.77;;;10.32;;
49610;SDS011;35515;48.766;9.176;2023-05-14T06:32:58;12.23;;;9.85;;
49610;SDS011;35515;48.766;9.176;2023-05-14T06:35:24;14.32;;;10.27;;
49610;SDS011;35515;48.766;9.176;2023-05-14T06:37:51;11.98;;;9.20;;
49610;SDS011;35515;48.766;9.176;2023-05-14T06:40:17;11.82;;;9.95;;
49610;SDS011;35515;48.766;9.176;2023-05-14T06:42:44;11.20;;;9.52;;
49610;SDS011;35515;48.766;9.176;2023-05-14T06:45:11;11.55;;;9.75;;
49610;SDS011;35515;48.766;9.176;2023-05-14T06:47:38;13.15;;;9.43;;
49610;SDS011;35515;48.766;9.176;2023-05-14T06:50:05;11.23;;;9.05;;
49610;SDS011;35515;48.766;9.176;2023-05-14T06:52:32;13.45;;;10.13;;
49610;SDS011;35515;48.766;9.176;2023-05-14T06:54:59;13.30;;;9.93;;
49610;SDS011;35515;48.766;9.176;2023-05-14T06:57:25;15.20;;;10.27;;
49610;SDS011;35515;48.766;9.176;2023-05-14T06:59:52;12.65;;;10.52;;
49610;SDS011;35515;48.766;9.176;2023-05-14T07:02:18;10.75;;;9.63;;
49610;SDS011;35515;48.766;9.176;2023-05-14T07:04:46;12.95;;;9.82;;
49610;SDS011;35515;48.766;9.176;2023-05-14T07:07:13;12.95;;;10.27;;
49610;SDS011;35515;48.766;9.176;2023-05-14T07:09:42;11.20;;;8.68;;
49610;SDS011;35515;48.766;9.176;2023-05-14T07:12:08;12.63;;;9.50;;
49610;SDS011;35515;48.766;9.176;2023-05-14T07:14:35;17.60;;;10.10;;
49610;SDS011;35515;48.766;9.176;2023-05-14T07:17:01;14.27;;;10.07;;
49610;SDS011;35515;48.766;9.176;2023-05-14T07:19:28;12.40;;;10.02;;
49610;SDS011;35515;48.766;9.176;2023-05-14T07:21:56;13.23;;;9.00;;
49610;SDS011;35515;48.766;9.176;2023-05-14T07:24:23;12.38;;;9.77;;
49610;SDS011;35515;48.766;9.176;2023-05-14T07:26:49;13.38;;;10.15;;
49610;SDS011;35515;48.766;9.176;2023-05-14T07:29:16;11.50;;;9.35;;
49610;SDS011;35515;48.766;9.176;2023-05-14T07:31:42;11.27;;;9.23;;
49610;SDS011;35515;48.766;9.176;2023-05-14T07:34:09;12.80;;;9.77;;
49610;SDS011;35515;48.766;9.176;2023-05-14T07:36:36;12.48;;;9.73;;
49610;SDS011;35515;48.766;9.176;2023-05-14T07:39:05;14.77;;;9.32;;
49610;SDS011;35515;48.766;9.176;2023-05-14T07:41:31;10.88;;;9.23;;
49610;SDS011;35515;48.766;9.176;2023-05-14T07:43:58;12.63;;;9.80;;
49610;SDS011;35515;48.766;9.176;2023-05-14T07:46:25;11.88;;;9.38;;
49610;SDS011;35515;48.766;9.176;2023-05-14T07:48:51;17.73;;;12.18;;
49610;SDS011;35515;48.766;9.176;2023-05-14T07:51:17;11.43;;;8.55;;
49610;SDS011;35515;48.766;9.176;2023-05-14T07:53:44;13.02;;;9.63;;
49610;SDS011;35515;48.766;9.176;2023-05-14T07:56:12;11.90;;;9.35;;
49610;SDS011;35515;48.766;9.176;2023-05-14T07:58:38;12.00;;;9.73;;
49610;SDS011;35515;48.766;9.176;2023-05-14T08:01:05;16.25;;;10.02;;
49610;SDS011;35515;48.766;9.176;2023-05-14T08:03:33;11.50;;;9.45;;
49610;SDS011;35515;48.766;9.176;2023-05-14T08:05:59;11.55;;;9.60;;
49610;SDS011;35515;48.766;9.176;2023-05-14T08:08:26;13.82;;;10.63;;
49610;SDS011;35515;48.766;9.176;2023-05-14T08:10:52;10.82;;;9.07;;
49610;SDS011;35515;48.766;9.176;2023-05-14T08:13:21;12.38;;;9.60;;
49610;SDS011;35515;48.766;9.176;2023-05-14T08:15:47;11.20;;;9.10;;
49610;SDS011;35515;48.766;9.176;2023-05-14T08:18:14;13.23;;;10.13;;
49610;SDS011;35515;48.766;9.176;2023-05-14T08:20:40;13.88;;;10.65;;
49610;SDS011;35515;48.766;9.176;2023-05-14T08:23:07;17.48;;;10.32;;
49610;SDS011;35515;48.766;9.176;2023-05-14T08:25:33;11.95;;;9.65;;
49610;SDS011;35515;48.766;9.176;2023-05-14T08:28:00;12.48;;;10.07;;
49610;SDS011;35515;48.766;9.176;2023-05-14T08:30:28;12.40;;;9.93;;
49610;SDS011;35515;48.766;9.176;2023-05-14T08:32:54;10.55;;;9.00;;
49610;SDS011;35515;48.766;9.176;2023-05-14T08:35:21;12.32;;;9.10;;
49610;SDS011;35515;48.766;9.176;2023-05-14T08:37:47;11.55;;;9.20;;
49610;SDS011;35515;48.766;9.176;2023-05-14T08:40:15;12.02;;;9.90;;
49610;SDS011;35515;48.766;9.176;2023-05-14T08:42:42;11.85;;;10.07;;
49610;SDS011;35515;48.766;9.176;2023-05-14T08:45:10;11.02;;;9.05;;
49610;SDS011;35515;48.766;9.176;2023-05-14T08:47:43;13.63;;;10.75;;
49610;SDS011;35515;48.766;9.176;2023-05-14T08:50:13;11.00;;;9.70;;
49610;SDS011;35515;48.766;9.176;2023-05-14T08:52:40;12.15;;;9.60;;
49610;SDS011;35515;48.766;9.176;2023-05-14T08:55:08;12.68;;;9.45;;
49610;SDS011;35515;48.766;9.176;2023-05-14T08:57:36;13.05;;;10.55;;
49610;SDS011;35515;48.766;9.176;2023-05-14T09:00:04;13.15;;;10.00;;
49610;SDS011;35515;48.766;9.176;2023-05-14T09:02:33;13.85;;;9.93;;
49610;SDS011;35515;48.766;9.176;2023-05-14T09:05:01;13.20;;;10.55;;
49610;SDS011;35515;48.766;9.176;2023-05-14T09:07:28;14.35;;;9.88;;
49610;SDS011;35515;48.766;9.176;2023-05-14T09:09:55;13.38;;;10.23;;
49610;SDS011;35515;48.766;9.176;2023-05-14T09:12:21;12.50;;;9.70;;
49610;SDS011;35515;48.766;9.176;2023-05-14T09:14:48;12.77;;;10.15;;
49610;SDS011;35515;48.766;9.176;2023-05-14T09:17:16;14.40;;;10.30;;
49610;SDS011;35515;48.766;9.176;2023-05-14T09:19:43;13.43;;;10.10;;
49610;SDS011;35515;48.766;9.176;2023-05-14T09:22:15;14.02;;;10.50;;
49610;SDS011;35515;48.766;9.176;2023-05-14T09:24:42;13.10;;;9.90;;
49610;SDS011;35515;48.766;9.176;2023-05-14T09:27:14;11.75;;;9.27;;
49610;SDS011;35515;48.766;9.176;2023-05-14T09:29:44;13.18;;;9.32;;
49610;SDS011;35515;48.766;9.176;2023-05-14T09:32:10;12.27;;;8.95;;
49610;SDS011;35515;48.766;9.176;2023-05-14T09:34:37;15.52;;;9.95;;
49610;SDS011;35515;48.766;9.176;2023-05-14T09:37:05;11.93;;;9.25;;
49610;SDS011;35515;48.766;9.176;2023-05-14T09:39:34;12.93;;;9.50;;
49610;SDS011;35515;48.766;9.176;2023-05-14T09:42:02;13.55;;;9.98;;
49610;SDS011;35515;48.766;9.176;2023-05-14T09:44:29;12.40;;;8.65;;
49610;SDS011;35515;48.766;9.176;2023-05-14T09:46:56;13.02;;;9.43;;
49610;SDS011;35515;48.766;9.176;2023-05-14T09:49:23;11.60;;;8.65;;
49610;SDS011;35515;48.766;9.176;2023-05-14T09:51:50;11.45;;;8.60;;
49610;SDS011;35515;48.766;9.176;2023-05-14T09:54:16;10.80;;;8.32;;
49610;SDS011;35515;48.766;9.176;2023-05-14T09:56:44;10.82;;;8.27;;
49610;SDS011;35515;48.766;9.176;2023-05-14T09:59:11;11.60;;;9.05;;
49610;SDS011;35515;48.766;9.176;2023-05-14T10:01:37;11.50;;;9.27;;
49610;SDS011;35515;48.766;9.176;2023-05-14T10:04:07;11.98;;;9.05;;
49610;SDS011;35515;48.766;9.176;2023-05-14T10:06:35;12.63;;;9.10;;
49610;SDS011;35515;48.766;9.176;2023-05-14T10:09:03;10.85;;;8.93;;
49610;SDS011;35515;48.766;9.176;2023-05-14T10:11:32;11.25;;;9.23;;
49610;SDS011;35515;48.766;9.176;2023-05-14T10:14:05;13.75;;;10.02;;
49610;SDS011;35515;48.766;9.176;2023-05-14T10:16:33;12.57;;;9.27;;
49610;SDS011;35515;48.766;9.176;2023-05-14T10:19:04;10.75;;;7.90;;
49610;SDS011;35515;48.766;9.176;2023-05-14T10:21:34;9.90;;;8.48;;
49610;SDS011;35515;48.766;9.176;2023-05-14T10:24:03;11.30;;;8.00;;
49610;SDS011;35515;48.766;9.176;2023-05-14T10:26:30;10.93;;;8.27;;
49610;SDS011;35515;48.766;9.176;2023-05-14T10:28:57;9.13;;;7.65;;
49610;SDS011;35515;48.766;9.176;2023-05-14T10:36:57;10.85;;;8.02;;
49610;SDS011;35515;48.766;9.176;2023-05-14T10:39:38;10.45;;;7.07;;
49610;SDS011;35515;48.766;9.176;2023-05-14T10:42:07;9.38;;;7.00;;
49610;SDS011;35515;48.766;9.176;2023-05-14T10:44:35;8.98;;;7.22;;
49610;SDS011;35515;48.766;9.176;2023-05-14T10:47:13;11.25;;;8.80;;
49610;SDS011;35515;48.766;9.176;2023-05-14T10:49:40;9.35;;;8.05;;
49610;SDS011;35515;48.766;9.176;2023-05-14T10:52:08;7.55;;;6.63;;
49610;SDS011;35515;48.766;9.176;2023-05-14T10:54:34;9.00;;;7.28;;
49610;SDS011;35515;48.766;9.176;2023-05-14T10:57:02;10.27;;;7.30;;
49610;SDS011;35515;48.766;9.176;2023-05-14T10:59:28;9.00;;;7.78;;
49610;SDS011;35515;48.766;9.176;2023-05-14T11:01:55;9.95;;;7.20;;
49610;SDS011;35515;48.766;9.176;2023-05-14T11:04:23;9.98;;;7.78;;
49610;SDS011;35515;48.766;9.176;2023-05-14T11:06:50;10.07;;;6.97;;
49610;SDS011;35515;48.766;9.176;2023-05-14T11:09:18;8.93;;;7.40;;
49610;SDS011;35515;48.766;9.176;2023-05-14T11:11:46;12.70;;;7.70;;
49610;SDS011;35515;48.766;9.176;2023-05-14T11:14:13;8.43;;;7.28;;
49610;SDS011;35515;48.766;9.176;2023-05-14T11:16:39;9.30;;;7.28;;
49610;SDS011;35515;48.766;9.176;2023-05-14T11:19:06;10.10;;;7.65;;
49610;SDS011;35515;48.766;9.176;2023-05-14T11:21:34;9.77;;;8.00;;
49610;SDS011;35515;48.766;9.176;2023-05-14T11:24:01;8.50;;;6.95;;
49610;SDS011;35515;48.766;9.176;2023-05-14T11:26:30;10.48;;;8.20;;
49610;SDS011;35515;48.766;9.176;2023-05-14T11:28:57;10.05;;;7.63;;
49610;SDS011;35515;48.766;9.176;2023-05-14T11:31:24;9.55;;;7.82;;
49610;SDS011;35515;48.766;9.176;2023-05-14T11:33:50;11.50;;;8.15;;
49610;SDS011;35515;48.766;9.176;2023-05-14T11:36:18;10.52;;;8.18;;
49610;SDS011;35515;48.766;9.176;2023-05-14T11:38:46;10.95;;;7.30;;
49610;SDS011;35515;48.766;9.176;2023-05-14T11:41:15;8.32;;;7.20;;
49610;SDS011;35515;48.766;9.176;2023-05-14T11:43:41;7.80;;;6.43;;
49610;SDS011;35515;48.766;9.176;2023-05-14T11:46:14;8.13;;;6.18;;
49610;SDS011;35515;48.766;9.176;2023-05-14T11:48:42;8.10;;;6.25;;
49610;SDS011;35515;48.766;9.176;2023-05-14T11:51:08;10.27;;;6.57;;
49610;SDS011;35515;48.766;9.176;2023-05-14T11:53:35;10.02;;;7.35;;
49610;SDS011;35515;48.766;9.176;2023-05-14T11:56:03;9.05;;;6.80;;
49610;SDS011;35515;48.766;9.176;2023-05-14T11:58:31;7.93;;;6.30;;
49610;SDS011;35515;48.766;9.176;2023-05-14T12:00:57;8.68;;;6.75;;
49610;SDS011;35515;48.766;9.176;2023-05-14T12:03:24;10.10;;;6.82;;
49610;SDS011;35515;48.766;9.176;2023-05-14T12:05:53;8.32;;;6.50;;
49610;SDS011;35515;48.766;9.176;2023-05-14T12:08:20;8.57;;;6.50;;
49610;SDS011;35515;48.766;9.176;2023-05-14T12:10:48;7.97;;;6.55;;
49610;SDS011;35515;48.766;9.176;2023-05-14T12:13:16;8.10;;;6.38;;
49610;SDS011;35515;48.766;9.176;2023-05-14T12:15:44;10.15;;;7.03;;
49610;SDS011;35515;48.766;9.176;2023-05-14T12:18:12;8.40;;;5.60;;
49610;SDS011;35515;48.766;9.176;2023-05-14T12:20:38;8.65;;;6.38;;
49610;SDS011;35515;48.766;9.176;2023-05-14T12:23:08;8.98;;;6.63;;
49610;SDS011;35515;48.766;9.176;2023-05-14T12:25:36;8.65;;;5.90;;
49610;SDS011;35515;48.766;9.176;2023-05-14T12:28:12;7.60;;;5.90;;
49610;SDS011;35515;48.766;9.176;2023-05-14T12:30:41;6.72;;;5.18;;
49610;SDS011;35515;48.766;9.176;2023-05-14T12:33:07;6.95;;;5.22;;
49610;SDS011;35515;48.766;9.176;2023-05-14T12:35:34;7.50;;;5.63;;
49610;SDS011;35515;48.766;9.176;2023-05-14T12:38:01;7.72;;;5.20;;
49610;SDS011;35515;48.766;9.176;2023-05-14T12:40:28;7.10;;;5.47;;
49610;SDS011;35515;48.766;9.176;2023-05-14T12:42:55;5.90;;;4.78;;
49610;SDS011;35515;48.766;9.176;2023-05-14T12:45:21;8.35;;;5.75;;
49610;SDS011;35515;48.766;9.176;2023-05-14T12:47:50;5.32;;;4.57;;
49610;SDS011;35515;48.766;9.176;2023-05-14T12:50:16;5.43;;;4.82;;
49610;SDS011;35515;48.766;9.176;2023-05-14T12:52:43;5.47;;;4.68;;
49610;SDS011;35515;48.766;9.176;2023-05-14T12:55:10;6.10;;;4.85;;
49610;SDS011;35515;48.766;9.176;2023-05-14T12:57:37;5.97;;;4.80;;
49610;SDS011;35515;48.766;9.176;2023-05-14T13:00:04;5.78;;;4.72;;
49610;SDS011;35515;48.766;9.176;2023-05-14T13:02:32;6.15;;;4.60;;
49610;SDS011;35515;48.766;9.176;2023-05-14T13:05:00;5.88;;;4.60;;
49610;SDS011;35515;48.766;9.176;2023-05-14T13:07:28;6.78;;;4.43;;
49610;SDS011;35515;48.766;9.176;2023-05-14T13:09:55;8.02;;;4.65;;
49610;SDS011;35515;48.766;9.176;2023-05-14T13:12:22;4.75;;;3.92;;
49610;SDS011;35515;48.766;9.176;2023-05-14T13:14:49;6.95;;;4.80;;
49610;SDS011;35515;48.766;9.176;2023-05-14T13:17:15;7.45;;;4.90;;
49610;SDS011;35515;48.766;9.176;2023-05-14T13:19:42;7.20;;;4.95;;
49610;SDS011;35515;48.766;9.176;2023-05-14T13:22:10;5.25;;;4.15;;
49610;SDS011;35515;48.766;9.176;2023-05-14T13:24:37;7.18;;;4.10;;
49610;SDS011;35515;48.766;9.176;2023-05-14T13:27:03;5.45;;;4.22;;
49610;SDS011;35515;48.766;9.176;2023-05-14T13:29:30;6.30;;;4.50;;
49610;SDS011;35515;48.766;9.176;2023-05-14T13:31:57;6.30;;;4.10;;
49610;SDS011;35515;48.766;9.176;2023-05-14T13:34:23;6.57;;;4.60;;
49610;SDS011;35515;48.766;9.176;2023-05-14T13:36:50;7.80;;;4.50;;
49610;SDS011;35515;48.766;9.176;2023-05-14T13:39:18;6.20;;;4.50;;
49610;SDS011;35515;48.766;9.176;2023-05-14T13:41:46;5.80;;;4.25;;
49610;SDS011;35515;48.766;9.176;2023-05-14T13:44:14;6.93;;;4.95;;
49610;SDS011;35515;48.766;9.176;2023-05-14T13:46:41;6.30;;;4.90;;
49610;SDS011;35515;48.766;9.176;2023-05-14T13:49:08;6.60;;;5.25;;
49610;SDS011;35515;48.766;9.176;2023-05-14T13:51:35;6.72;;;4.80;;
49610;SDS011;35515;48.766;9.176;2023-05-14T13:54:01;7.32;;;4.68;;
49610;SDS011;35515;48.766;9.176;2023-05-14T13:56:29;6.88;;;4.70;;
49610;SDS011;35515;48.766;9.176;2023-05-14T13:58:56;5.05;;;4.13;;
49610;SDS011;35515;48.766;9.176;2023-05-14T14:01:22;5.35;;;4.15;;
49610;SDS011;35515;48.766;9.176;2023-05-14T14:03:49;5.15;;;4.30;;
49610;SDS011;35515;48.766;9.176;2023-05-14T14:06:16;5.57;;;4.35;;
49610;SDS011;35515;48.766;9.176;2023-05-14T14:08:43;5.13;;;4.25;;
49610;SDS011;35515;48.766;9.176;2023-05-14T14:11:09;7.07;;;4.70;;
49610;SDS011;35515;48.766;9.176;2023-05-14T14:13:38;5.32;;;4.72;;
49610;SDS011;35515;48.766;9.176;2023-05-14T14:16:05;7.53;;;4.65;;
49610;SDS011;35515;48.766;9.176;2023-05-14T14:18:32;7.40;;;4.50;;
49610;SDS011;35515;48.766;9.176;2023-05-14T14:20:59;5.00;;;4.50;;
49610;SDS011;35515;48.766;9.176;2023-05-14T14:23:25;6.30;;;5.00;;
49610;SDS011;35515;48.766;9.176;2023-05-14T14:25:52;5.68;;;4.15;;
49610;SDS011;35515;48.766;9.176;2023-05-14T14:28:18;4.68;;;3.95;;
49610;SDS011;35515;48.766;9.176;2023-05-14T14:30:46;4.82;;;3.75;;
49610;SDS011;35515;48.766;9.176;2023-05-14T14:33:13;4.97;;;3.25;;
49610;SDS011;35515;48.766;9.176;2023-05-14T14:35:40;5.25;;;3.78;;
49610;SDS011;35515;48.766;9.176;2023-05-14T14:38:06;4.80;;;3.70;;
49610;SDS011;35515;48.766;9.176;2023-05-14T14:40:33;4.55;;;3.40;;
49610;SDS011;35515;48.766;9.176;2023-05-14T14:43:00;4.60;;;3.58;;